sensor_id;sensor_type;location;lat;lon;timestamp;P1;durP1;ratioP1;P2;durP2;ratioP2
62696;SDS011;48761;42.680;23.312;2023-03-31T00:00:29;14.68;;;8.40;;
62696;SDS011;48761;42.680;23.312;2023-03-31T00:02:55;18.58;;;9.20;;
62696;SDS011;48761;42.680;23.312;2023-03-31T00:05:22;17.73;;;9.30;;
62696;SDS011;48761;42.680;23.312;2023-03-31T00:07:48;19.13;;;9.27;;
62696;SDS011;48761;42.680;23.312;2023-03-31T00:10:18;17.63;;;9.38;;
62696;SDS011;48761;42.680;23.312;2023-03-31T00:12:44;20.13;;;9.50;;
62696;SDS011;48761;42.680;23.312;2023-03-31T00:15:10;18.52;;;9.25;;
62696;SDS011;48761;42.680;23.312;2023-03-31T00:17:36;16.58;;;9.73;;
62696;SDS011;48761;42.680;23.312;2023-03-31T00:20:02;17.25;;;9.70;;
62696;SDS011;48761;42.680;23.312;2023-03-31T00:22:28;19.58;;;9.80;;
62696;SDS011;48761;42.680;23.312;2023-03-31T00:24:54;18.67;;;8.52;;
62696;SDS011;48761;42.680;23.312;2023-03-31T00:27:20;17.38;;;8.50;;
62696;SDS011;48761;42.680;23.312;2023-03-31T00:29:46;21.60;;;8.85;;
62696;SDS011;48761;42.680;23.312;2023-03-31T00:32:12;17.98;;;8.95;;
62696;SDS011;48761;42.680;23.312;2023-03-31T00:34:38;17.48;;;9.45;;
62696;SDS011;48761;42.680;23.312;2023-03-31T00:37:04;16.73;;;8.63;;
62696;SDS011;48761;42.680;23.312;2023-03-31T00:39:30;17.55;;;9.00;;
62696;SDS011;48761;42.680;23.312;2023-03-31T00:41:56;19.95;;;8.85;;
62696;SDS011;48761;42.680;23.312;2023-03-31T00:44:23;14.23;;;8.23;;
62696;SDS011;48761;42.680;23.312;2023-03-31T00:46:51;15.02;;;8.25;;
62696;SDS011;48761;42.680;23.312;2023-03-31T00:49:36;17.85;;;8.43;;
62696;SDS011;48761;42.680;23.312;2023-03-31T00:52:14;14.00;;;8.13;;
62696;SDS011;48761;42.680;23.312;2023-03-31T00:54:43;24.60;;;9.13;;
62696;SDS011;48761;42.680;23.312;2023-03-31T00:57:12;17.65;;;9.02;;
62696;SDS011;48761;42.680;23.312;2023-03-31T00:59:45;19.45;;;8.40;;
62696;SDS011;48761;42.680;23.312;2023-03-31T01:02:14;20.50;;;9.05;;
62696;SDS011;48761;42.680;23.312;2023-03-31T01:04:45;22.38;;;9.40;;
62696;SDS011;48761;42.680;23.312;2023-03-31T01:09:54;13.15;;;8.07;;
62696;SDS011;48761;42.680;23.312;2023-03-31T01:12:22;17.38;;;8.15;;
62696;SDS011;48761;42.680;23.312;2023-03-31T01:14:49;18.30;;;8.20;;
62696;SDS011;48761;42.680;23.312;2023-03-31T01:17:17;16.90;;;8.55;;
62696;SDS011;48761;42.680;23.312;2023-03-31T01:37:27;14.65;;;7.95;;
62696;SDS011;48761;42.680;23.312;2023-03-31T01:46:01;18.23;;;8.38;;
62696;SDS011;48761;42.680;23.312;2023-03-31T01:49:07;14.30;;;8.85;;
62696;SDS011;48761;42.680;23.312;2023-03-31T01:54:52;24.25;;;9.48;;
62696;SDS011;48761;42.680;23.312;2023-03-31T01:57:35;12.80;;;8.25;;
62696;SDS011;48761;42.680;23.312;2023-03-31T02:02:41;18.55;;;8.82;;
62696;SDS011;48761;42.680;23.312;2023-03-31T02:05:31;17.35;;;8.38;;
62696;SDS011;48761;42.680;23.312;2023-03-31T02:10:40;20.15;;;9.43;;
62696;SDS011;48761;42.680;23.312;2023-03-31T02:13:08;18.50;;;8.90;;
62696;SDS011;48761;42.680;23.312;2023-03-31T02:15:38;17.05;;;8.07;;
62696;SDS011;48761;42.680;23.312;2023-03-31T02:18:09;16.50;;;8.55;;
62696;SDS011;48761;42.680;23.312;2023-03-31T02:20:40;19.63;;;8.48;;
62696;SDS011;48761;42.680;23.312;2023-03-31T02:23:09;14.68;;;7.93;;
62696;SDS011;48761;42.680;23.312;2023-03-31T02:25:42;17.33;;;8.35;;
62696;SDS011;48761;42.680;23.312;2023-03-31T02:28:15;15.95;;;8.20;;
62696;SDS011;48761;42.680;23.312;2023-03-31T02:33:23;24.85;;;8.65;;
62696;SDS011;48761;42.680;23.312;2023-03-31T02:35:49;18.23;;;8.70;;
62696;SDS011;48761;42.680;23.312;2023-03-31T02:38:15;13.38;;;8.55;;
62696;SDS011;48761;42.680;23.312;2023-03-31T02:40:42;12.25;;;6.30;;
62696;SDS011;48761;42.680;23.312;2023-03-31T02:43:08;13.05;;;4.30;;
62696;SDS011;48761;42.680;23.312;2023-03-31T02:45:39;5.20;;;2.50;;
62696;SDS011;48761;42.680;23.312;2023-03-31T02:48:20;6.53;;;2.17;;
62696;SDS011;48761;42.680;23.312;2023-03-31T02:50:53;6.05;;;2.17;;
62696;SDS011;48761;42.680;23.312;2023-03-31T02:56:14;4.22;;;1.90;;
62696;SDS011;48761;42.680;23.312;2023-03-31T03:06:54;3.83;;;2.05;;
62696;SDS011;48761;42.680;23.312;2023-03-31T03:12:21;5.15;;;1.73;;
62696;SDS011;48761;42.680;23.312;2023-03-31T03:14:54;4.88;;;1.65;;
62696;SDS011;48761;42.680;23.312;2023-03-31T03:17:43;3.92;;;2.05;;
62696;SDS011;48761;42.680;23.312;2023-03-31T03:20:11;7.28;;;2.20;;
62696;SDS011;48761;42.680;23.312;2023-03-31T03:22:38;7.40;;;2.08;;
62696;SDS011;48761;42.680;23.312;2023-03-31T03:25:09;5.97;;;2.17;;
62696;SDS011;48761;42.680;23.312;2023-03-31T03:30:04;10.10;;;2.47;;
62696;SDS011;48761;42.680;23.312;2023-03-31T03:32:32;3.40;;;1.75;;
62696;SDS011;48761;42.680;23.312;2023-03-31T03:35:01;5.15;;;2.17;;
62696;SDS011;48761;42.680;23.312;2023-03-31T03:37:29;5.65;;;2.47;;
62696;SDS011;48761;42.680;23.312;2023-03-31T03:39:55;7.18;;;2.47;;
62696;SDS011;48761;42.680;23.312;2023-03-31T03:42:21;7.43;;;2.63;;
62696;SDS011;48761;42.680;23.312;2023-03-31T03:44:46;12.40;;;3.00;;
62696;SDS011;48761;42.680;23.312;2023-03-31T03:47:13;11.75;;;4.15;;
62696;SDS011;48761;42.680;23.312;2023-03-31T03:49:39;11.82;;;5.22;;
62696;SDS011;48761;42.680;23.312;2023-03-31T03:52:05;15.65;;;7.57;;
62696;SDS011;48761;42.680;23.312;2023-03-31T03:54:31;14.32;;;8.27;;
62696;SDS011;48761;42.680;23.312;2023-03-31T03:56:57;14.38;;;7.53;;
62696;SDS011;48761;42.680;23.312;2023-03-31T03:59:23;16.83;;;6.97;;
62696;SDS011;48761;42.680;23.312;2023-03-31T04:01:48;14.70;;;7.05;;
62696;SDS011;48761;42.680;23.312;2023-03-31T04:04:14;13.40;;;5.93;;
62696;SDS011;48761;42.680;23.312;2023-03-31T04:06:41;11.40;;;6.22;;
62696;SDS011;48761;42.680;23.312;2023-03-31T04:09:07;10.55;;;6.50;;
62696;SDS011;48761;42.680;23.312;2023-03-31T04:11:33;15.63;;;6.45;;
62696;SDS011;48761;42.680;23.312;2023-03-31T04:13:59;11.93;;;6.93;;
62696;SDS011;48761;42.680;23.312;2023-03-31T04:16:29;14.30;;;7.07;;
62696;SDS011;48761;42.680;23.312;2023-03-31T04:18:55;16.83;;;6.63;;
62696;SDS011;48761;42.680;23.312;2023-03-31T04:21:21;14.40;;;7.50;;
62696;SDS011;48761;42.680;23.312;2023-03-31T04:23:51;16.20;;;7.30;;
62696;SDS011;48761;42.680;23.312;2023-03-31T04:26:18;17.38;;;7.00;;
62696;SDS011;48761;42.680;23.312;2023-03-31T04:28:44;14.88;;;7.05;;
62696;SDS011;48761;42.680;23.312;2023-03-31T04:31:11;19.45;;;7.22;;
62696;SDS011;48761;42.680;23.312;2023-03-31T04:33:38;14.27;;;6.13;;
62696;SDS011;48761;42.680;23.312;2023-03-31T04:36:05;15.30;;;6.68;;
62696;SDS011;48761;42.680;23.312;2023-03-31T04:38:31;13.13;;;6.95;;
62696;SDS011;48761;42.680;23.312;2023-03-31T04:40:57;14.57;;;6.13;;
62696;SDS011;48761;42.680;23.312;2023-03-31T04:43:24;12.85;;;5.93;;
62696;SDS011;48761;42.680;23.312;2023-03-31T04:45:50;12.40;;;5.80;;
62696;SDS011;48761;42.680;23.312;2023-03-31T04:48:16;14.85;;;6.32;;
62696;SDS011;48761;42.680;23.312;2023-03-31T04:50:42;14.85;;;6.40;;
62696;SDS011;48761;42.680;23.312;2023-03-31T04:53:08;16.30;;;6.65;;
62696;SDS011;48761;42.680;23.312;2023-03-31T04:55:34;16.05;;;7.07;;
62696;SDS011;48761;42.680;23.312;2023-03-31T04:58:00;15.27;;;7.10;;
62696;SDS011;48761;42.680;23.312;2023-03-31T05:00:26;13.43;;;6.15;;
62696;SDS011;48761;42.680;23.312;2023-03-31T05:02:52;14.60;;;5.70;;
62696;SDS011;48761;42.680;23.312;2023-03-31T05:05:18;20.60;;;6.32;;
62696;SDS011;48761;42.680;23.312;2023-03-31T05:07:43;10.82;;;6.20;;
62696;SDS011;48761;42.680;23.312;2023-03-31T05:10:09;11.85;;;5.32;;
62696;SDS011;48761;42.680;23.312;2023-03-31T05:12:35;15.40;;;6.75;;
62696;SDS011;48761;42.680;23.312;2023-03-31T05:15:03;13.15;;;6.68;;
62696;SDS011;48761;42.680;23.312;2023-03-31T05:17:33;13.20;;;7.07;;
62696;SDS011;48761;42.680;23.312;2023-03-31T05:20:00;16.83;;;6.63;;
62696;SDS011;48761;42.680;23.312;2023-03-31T05:22:26;17.83;;;6.97;;
62696;SDS011;48761;42.680;23.312;2023-03-31T05:24:52;15.63;;;7.55;;
62696;SDS011;48761;42.680;23.312;2023-03-31T05:27:18;12.75;;;6.68;;
62696;SDS011;48761;42.680;23.312;2023-03-31T05:29:44;15.40;;;7.50;;
62696;SDS011;48761;42.680;23.312;2023-03-31T05:32:10;15.60;;;7.90;;
62696;SDS011;48761;42.680;23.312;2023-03-31T05:34:36;16.13;;;7.95;;
62696;SDS011;48761;42.680;23.312;2023-03-31T05:37:02;16.33;;;7.65;;
62696;SDS011;48761;42.680;23.312;2023-03-31T05:39:27;18.30;;;8.25;;
62696;SDS011;48761;42.680;23.312;2023-03-31T05:41:53;16.45;;;8.23;;
62696;SDS011;48761;42.680;23.312;2023-03-31T05:44:19;17.67;;;8.25;;
62696;SDS011;48761;42.680;23.312;2023-03-31T05:46:45;22.00;;;9.23;;
62696;SDS011;48761;42.680;23.312;2023-03-31T05:49:11;16.40;;;10.15;;
62696;SDS011;48761;42.680;23.312;2023-03-31T05:51:37;17.17;;;9.60;;
62696;SDS011;48761;42.680;23.312;2023-03-31T05:54:03;17.85;;;9.15;;
62696;SDS011;48761;42.680;23.312;2023-03-31T05:56:29;21.48;;;9.20;;
62696;SDS011;48761;42.680;23.312;2023-03-31T05:58:55;23.33;;;10.13;;
62696;SDS011;48761;42.680;23.312;2023-03-31T06:01:21;21.30;;;10.00;;
62696;SDS011;48761;42.680;23.312;2023-03-31T06:03:47;20.95;;;9.27;;
62696;SDS011;48761;42.680;23.312;2023-03-31T06:06:13;19.38;;;9.23;;
62696;SDS011;48761;42.680;23.312;2023-03-31T06:08:40;14.95;;;8.80;;
62696;SDS011;48761;42.680;23.312;2023-03-31T06:11:06;16.83;;;9.13;;
62696;SDS011;48761;42.680;23.312;2023-03-31T06:13:34;15.60;;;8.35;;
62696;SDS011;48761;42.680;23.312;2023-03-31T06:16:00;21.25;;;9.57;;
62696;SDS011;48761;42.680;23.312;2023-03-31T06:18:27;25.23;;;8.25;;
62696;SDS011;48761;42.680;23.312;2023-03-31T06:20:54;23.40;;;9.63;;
62696;SDS011;48761;42.680;23.312;2023-03-31T06:23:21;16.33;;;8.48;;
62696;SDS011;48761;42.680;23.312;2023-03-31T06:25:48;21.15;;;9.38;;
62696;SDS011;48761;42.680;23.312;2023-03-31T06:28:14;16.65;;;7.80;;
62696;SDS011;48761;42.680;23.312;2023-03-31T06:30:40;15.65;;;7.88;;
62696;SDS011;48761;42.680;23.312;2023-03-31T06:33:06;18.08;;;7.63;;
62696;SDS011;48761;42.680;23.312;2023-03-31T06:35:32;14.48;;;6.47;;
62696;SDS011;48761;42.680;23.312;2023-03-31T06:37:58;20.45;;;6.82;;
62696;SDS011;48761;42.680;23.312;2023-03-31T06:40:24;20.23;;;8.07;;
62696;SDS011;48761;42.680;23.312;2023-03-31T06:42:50;17.25;;;6.00;;
62696;SDS011;48761;42.680;23.312;2023-03-31T06:45:16;12.93;;;6.60;;
62696;SDS011;48761;42.680;23.312;2023-03-31T06:47:42;23.77;;;7.82;;
62696;SDS011;48761;42.680;23.312;2023-03-31T06:50:08;13.82;;;5.78;;
62696;SDS011;48761;42.680;23.312;2023-03-31T06:52:35;11.70;;;5.00;;
62696;SDS011;48761;42.680;23.312;2023-03-31T06:55:01;8.73;;;3.15;;
62696;SDS011;48761;42.680;23.312;2023-03-31T06:57:28;10.57;;;3.47;;
62696;SDS011;48761;42.680;23.312;2023-03-31T06:59:54;11.85;;;2.95;;
62696;SDS011;48761;42.680;23.312;2023-03-31T07:02:20;11.98;;;4.00;;
62696;SDS011;48761;42.680;23.312;2023-03-31T07:04:46;9.70;;;3.40;;
62696;SDS011;48761;42.680;23.312;2023-03-31T07:07:11;6.30;;;3.53;;
62696;SDS011;48761;42.680;23.312;2023-03-31T07:09:37;9.63;;;3.33;;
62696;SDS011;48761;42.680;23.312;2023-03-31T07:12:03;10.40;;;3.22;;
62696;SDS011;48761;42.680;23.312;2023-03-31T07:14:30;12.45;;;3.53;;
62696;SDS011;48761;42.680;23.312;2023-03-31T07:16:56;9.00;;;3.67;;
62696;SDS011;48761;42.680;23.312;2023-03-31T07:19:22;6.00;;;2.75;;
62696;SDS011;48761;42.680;23.312;2023-03-31T07:21:49;8.35;;;3.13;;
62696;SDS011;48761;42.680;23.312;2023-03-31T07:24:17;6.82;;;3.85;;
62696;SDS011;48761;42.680;23.312;2023-03-31T07:26:43;10.80;;;4.38;;
62696;SDS011;48761;42.680;23.312;2023-03-31T07:29:09;10.80;;;4.10;;
62696;SDS011;48761;42.680;23.312;2023-03-31T07:31:35;7.72;;;4.38;;
62696;SDS011;48761;42.680;23.312;2023-03-31T07:34:01;7.10;;;4.45;;
62696;SDS011;48761;42.680;23.312;2023-03-31T07:36:29;10.18;;;4.35;;
62696;SDS011;48761;42.680;23.312;2023-03-31T07:38:55;11.32;;;5.00;;
62696;SDS011;48761;42.680;23.312;2023-03-31T07:41:22;14.57;;;5.57;;
62696;SDS011;48761;42.680;23.312;2023-03-31T07:43:48;9.55;;;4.75;;
62696;SDS011;48761;42.680;23.312;2023-03-31T07:46:19;9.32;;;4.40;;
62696;SDS011;48761;42.680;23.312;2023-03-31T07:48:50;10.60;;;4.47;;
62696;SDS011;48761;42.680;23.312;2023-03-31T07:51:19;10.50;;;4.32;;
62696;SDS011;48761;42.680;23.312;2023-03-31T07:53:47;8.85;;;4.65;;
62696;SDS011;48761;42.680;23.312;2023-03-31T07:56:13;10.45;;;4.75;;
62696;SDS011;48761;42.680;23.312;2023-03-31T07:58:40;13.75;;;4.90;;
62696;SDS011;48761;42.680;23.312;2023-03-31T08:01:05;9.88;;;4.05;;
62696;SDS011;48761;42.680;23.312;2023-03-31T08:03:31;8.25;;;3.35;;
62696;SDS011;48761;42.680;23.312;2023-03-31T08:05:57;8.10;;;3.67;;
62696;SDS011;48761;42.680;23.312;2023-03-31T08:08:23;10.20;;;3.65;;
62696;SDS011;48761;42.680;23.312;2023-03-31T08:10:49;9.35;;;3.25;;
62696;SDS011;48761;42.680;23.312;2023-03-31T08:13:15;7.70;;;3.15;;
62696;SDS011;48761;42.680;23.312;2023-03-31T08:15:41;7.70;;;2.95;;
62696;SDS011;48761;42.680;23.312;2023-03-31T08:18:07;13.25;;;3.45;;
62696;SDS011;48761;42.680;23.312;2023-03-31T08:20:33;5.97;;;3.10;;
62696;SDS011;48761;42.680;23.312;2023-03-31T08:22:59;11.40;;;3.88;;
62696;SDS011;48761;42.680;23.312;2023-03-31T08:25:25;12.55;;;3.47;;
62696;SDS011;48761;42.680;23.312;2023-03-31T08:27:51;7.70;;;3.20;;
62696;SDS011;48761;42.680;23.312;2023-03-31T08:30:17;12.02;;;3.13;;
62696;SDS011;48761;42.680;23.312;2023-03-31T08:32:44;9.80;;;2.70;;
62696;SDS011;48761;42.680;23.312;2023-03-31T08:35:11;8.93;;;2.83;;
62696;SDS011;48761;42.680;23.312;2023-03-31T08:37:37;8.95;;;2.97;;
62696;SDS011;48761;42.680;23.312;2023-03-31T08:40:04;5.95;;;2.60;;
62696;SDS011;48761;42.680;23.312;2023-03-31T08:42:40;11.48;;;3.22;;
62696;SDS011;48761;42.680;23.312;2023-03-31T08:45:16;5.88;;;2.70;;
62696;SDS011;48761;42.680;23.312;2023-03-31T08:47:46;8.95;;;2.88;;
62696;SDS011;48761;42.680;23.312;2023-03-31T08:50:16;9.40;;;3.53;;
62696;SDS011;48761;42.680;23.312;2023-03-31T08:52:55;7.82;;;2.80;;
62696;SDS011;48761;42.680;23.312;2023-03-31T08:55:43;7.47;;;2.63;;
62696;SDS011;48761;42.680;23.312;2023-03-31T08:58:17;9.48;;;3.20;;
62696;SDS011;48761;42.680;23.312;2023-03-31T09:06:35;8.23;;;2.97;;
62696;SDS011;48761;42.680;23.312;2023-03-31T09:09:05;7.47;;;2.58;;
62696;SDS011;48761;42.680;23.312;2023-03-31T09:11:40;5.72;;;2.97;;
62696;SDS011;48761;42.680;23.312;2023-03-31T09:19:36;8.65;;;2.67;;
62696;SDS011;48761;42.680;23.312;2023-03-31T09:22:09;10.60;;;3.00;;
62696;SDS011;48761;42.680;23.312;2023-03-31T09:24:47;5.93;;;2.28;;
62696;SDS011;48761;42.680;23.312;2023-03-31T09:27:19;6.82;;;2.40;;
62696;SDS011;48761;42.680;23.312;2023-03-31T09:29:50;5.28;;;2.42;;
62696;SDS011;48761;42.680;23.312;2023-03-31T09:32:23;6.90;;;2.63;;
62696;SDS011;48761;42.680;23.312;2023-03-31T09:34:53;7.30;;;2.30;;
62696;SDS011;48761;42.680;23.312;2023-03-31T09:37:24;7.93;;;1.90;;
62696;SDS011;48761;42.680;23.312;2023-03-31T09:39:55;9.52;;;2.30;;
62696;SDS011;48761;42.680;23.312;2023-03-31T09:42:25;6.03;;;2.25;;
62696;SDS011;48761;42.680;23.312;2023-03-31T09:44:51;11.82;;;3.28;;
62696;SDS011;48761;42.680;23.312;2023-03-31T09:49:44;8.40;;;2.60;;
62696;SDS011;48761;42.680;23.312;2023-03-31T09:54:55;4.75;;;2.17;;
62696;SDS011;48761;42.680;23.312;2023-03-31T09:57:25;8.43;;;2.50;;
62696;SDS011;48761;42.680;23.312;2023-03-31T10:00:12;12.05;;;2.70;;
62696;SDS011;48761;42.680;23.312;2023-03-31T10:05:48;9.55;;;2.70;;
62696;SDS011;48761;42.680;23.312;2023-03-31T10:10:46;4.65;;;2.40;;
62696;SDS011;48761;42.680;23.312;2023-03-31T10:13:34;9.48;;;2.50;;
62696;SDS011;48761;42.680;23.312;2023-03-31T10:16:34;12.25;;;2.85;;
62696;SDS011;48761;42.680;23.312;2023-03-31T10:19:12;5.70;;;2.10;;
62696;SDS011;48761;42.680;23.312;2023-03-31T10:21:47;6.65;;;2.42;;
62696;SDS011;48761;42.680;23.312;2023-03-31T10:24:20;5.32;;;2.40;;
62696;SDS011;48761;42.680;23.312;2023-03-31T10:26:47;7.28;;;2.42;;
62696;SDS011;48761;42.680;23.312;2023-03-31T10:29:17;7.85;;;2.65;;
62696;SDS011;48761;42.680;23.312;2023-03-31T10:31:48;8.00;;;2.50;;
62696;SDS011;48761;42.680;23.312;2023-03-31T10:34:14;7.70;;;2.53;;
62696;SDS011;48761;42.680;23.312;2023-03-31T10:36:44;5.68;;;2.03;;
62696;SDS011;48761;42.680;23.312;2023-03-31T10:39:14;7.70;;;2.20;;
62696;SDS011;48761;42.680;23.312;2023-03-31T10:41:41;10.43;;;2.60;;
62696;SDS011;48761;42.680;23.312;2023-03-31T10:44:22;6.30;;;2.30;;
62696;SDS011;48761;42.680;23.312;2023-03-31T10:49:39;7.90;;;2.83;;
62696;SDS011;48761;42.680;23.312;2023-03-31T10:52:14;7.30;;;3.03;;
62696;SDS011;48761;42.680;23.312;2023-03-31T10:54:52;7.57;;;2.65;;
62696;SDS011;48761;42.680;23.312;2023-03-31T11:00:11;7.50;;;2.63;;
62696;SDS011;48761;42.680;23.312;2023-03-31T11:02:57;7.40;;;3.00;;
62696;SDS011;48761;42.680;23.312;2023-03-31T11:11:05;6.18;;;2.15;;
62696;SDS011;48761;42.680;23.312;2023-03-31T11:13:58;5.55;;;2.50;;
62696;SDS011;48761;42.680;23.312;2023-03-31T11:19:13;7.70;;;2.35;;
62696;SDS011;48761;42.680;23.312;2023-03-31T11:24:33;8.25;;;2.22;;
62696;SDS011;48761;42.680;23.312;2023-03-31T11:30:00;8.55;;;2.72;;
62696;SDS011;48761;42.680;23.312;2023-03-31T11:41:04;10.00;;;3.28;;
62696;SDS011;48761;42.680;23.312;2023-03-31T11:46:27;9.13;;;2.75;;
62696;SDS011;48761;42.680;23.312;2023-03-31T11:54:52;5.57;;;2.88;;
62696;SDS011;48761;42.680;23.312;2023-03-31T11:59:56;7.90;;;2.55;;
62696;SDS011;48761;42.680;23.312;2023-03-31T12:02:57;9.55;;;3.17;;
62696;SDS011;48761;42.680;23.312;2023-03-31T12:05:26;7.25;;;2.67;;
62696;SDS011;48761;42.680;23.312;2023-03-31T12:10:33;8.35;;;2.50;;
62696;SDS011;48761;42.680;23.312;2023-03-31T12:15:53;11.73;;;3.10;;
62696;SDS011;48761;42.680;23.312;2023-03-31T12:21:43;13.80;;;2.67;;
62696;SDS011;48761;42.680;23.312;2023-03-31T12:24:17;9.70;;;2.40;;
62696;SDS011;48761;42.680;23.312;2023-03-31T12:26:58;4.78;;;2.17;;
62696;SDS011;48761;42.680;23.312;2023-03-31T12:29:35;10.02;;;2.70;;
62696;SDS011;48761;42.680;23.312;2023-03-31T12:32:38;10.07;;;2.83;;
62696;SDS011;48761;42.680;23.312;2023-03-31T13:11:22;5.15;;;2.22;;
62696;SDS011;48761;42.680;23.312;2023-03-31T13:13:59;9.63;;;2.60;;
62696;SDS011;48761;42.680;23.312;2023-03-31T13:16:30;7.63;;;2.50;;
62696;SDS011;48761;42.680;23.312;2023-03-31T13:18:58;7.78;;;2.60;;
62696;SDS011;48761;42.680;23.312;2023-03-31T13:21:24;7.70;;;2.20;;
62696;SDS011;48761;42.680;23.312;2023-03-31T13:23:51;7.97;;;2.75;;
62696;SDS011;48761;42.680;23.312;2023-03-31T13:26:37;8.60;;;2.17;;
62696;SDS011;48761;42.680;23.312;2023-03-31T13:34:27;5.57;;;2.30;;
62696;SDS011;48761;42.680;23.312;2023-03-31T13:42:22;6.07;;;2.53;;
62696;SDS011;48761;42.680;23.312;2023-03-31T13:48:19;6.03;;;2.47;;
62696;SDS011;48761;42.680;23.312;2023-03-31T14:10:28;9.23;;;3.78;;
62696;SDS011;48761;42.680;23.312;2023-03-31T14:15:42;9.70;;;2.83;;
62696;SDS011;48761;42.680;23.312;2023-03-31T14:18:11;11.50;;;3.42;;
62696;SDS011;48761;42.680;23.312;2023-03-31T14:31:28;8.65;;;2.55;;
62696;SDS011;48761;42.680;23.312;2023-03-31T14:39:29;8.50;;;2.50;;
62696;SDS011;48761;42.680;23.312;2023-03-31T14:42:16;6.15;;;2.13;;
62696;SDS011;48761;42.680;23.312;2023-03-31T14:44:44;7.28;;;2.20;;
62696;SDS011;48761;42.680;23.312;2023-03-31T14:47:12;7.28;;;2.38;;
62696;SDS011;48761;42.680;23.312;2023-03-31T14:49:59;10.10;;;3.08;;
62696;SDS011;48761;42.680;23.312;2023-03-31T14:52:39;8.70;;;2.80;;
62696;SDS011;48761;42.680;23.312;2023-03-31T14:55:14;8.70;;;2.67;;
62696;SDS011;48761;42.680;23.312;2023-03-31T14:57:42;5.43;;;2.13;;
62696;SDS011;48761;42.680;23.312;2023-03-31T15:00:13;13.07;;;2.58;;
62696;SDS011;48761;42.680;23.312;2023-03-31T15:02:44;8.07;;;2.75;;
62696;SDS011;48761;42.680;23.312;2023-03-31T15:07:50;7.18;;;2.67;;
62696;SDS011;48761;42.680;23.312;2023-03-31T15:10:19;11.02;;;2.83;;
62696;SDS011;48761;42.680;23.312;2023-03-31T15:12:46;9.27;;;3.28;;
62696;SDS011;48761;42.680;23.312;2023-03-31T15:15:14;6.40;;;2.47;;
62696;SDS011;48761;42.680;23.312;2023-03-31T15:17:42;8.75;;;2.75;;
62696;SDS011;48761;42.680;23.312;2023-03-31T15:22:51;9.32;;;3.13;;
62696;SDS011;48761;42.680;23.312;2023-03-31T15:25:16;16.02;;;4.50;;
62696;SDS011;48761;42.680;23.312;2023-03-31T15:27:53;15.23;;;4.82;;
62696;SDS011;48761;42.680;23.312;2023-03-31T15:30:23;9.02;;;4.30;;
62696;SDS011;48761;42.680;23.312;2023-03-31T15:32:51;12.88;;;3.17;;
62696;SDS011;48761;42.680;23.312;2023-03-31T15:37:57;5.93;;;2.50;;
62696;SDS011;48761;42.680;23.312;2023-03-31T15:40:26;9.10;;;2.88;;
62696;SDS011;48761;42.680;23.312;2023-03-31T15:45:59;12.35;;;2.47;;
62696;SDS011;48761;42.680;23.312;2023-03-31T15:50:52;8.13;;;2.38;;
62696;SDS011;48761;42.680;23.312;2023-03-31T15:53:25;5.95;;;2.47;;
62696;SDS011;48761;42.680;23.312;2023-03-31T15:55:52;9.68;;;3.28;;
62696;SDS011;48761;42.680;23.312;2023-03-31T15:58:19;13.07;;;3.13;;
62696;SDS011;48761;42.680;23.312;2023-03-31T16:03:33;5.50;;;2.70;;
62696;SDS011;48761;42.680;23.312;2023-03-31T16:06:01;8.18;;;2.78;;
62696;SDS011;48761;42.680;23.312;2023-03-31T16:08:37;5.10;;;2.50;;
62696;SDS011;48761;42.680;23.312;2023-03-31T16:11:08;8.60;;;3.20;;
62696;SDS011;48761;42.680;23.312;2023-03-31T16:13:42;5.95;;;3.42;;
62696;SDS011;48761;42.680;23.312;2023-03-31T16:16:14;7.30;;;2.97;;
62696;SDS011;48761;42.680;23.312;2023-03-31T16:18:49;10.80;;;3.10;;
62696;SDS011;48761;42.680;23.312;2023-03-31T16:21:19;6.68;;;3.28;;
62696;SDS011;48761;42.680;23.312;2023-03-31T16:23:51;7.43;;;2.80;;
62696;SDS011;48761;42.680;23.312;2023-03-31T16:26:21;8.93;;;3.13;;
62696;SDS011;48761;42.680;23.312;2023-03-31T16:28:51;10.80;;;2.90;;
62696;SDS011;48761;42.680;23.312;2023-03-31T16:31:26;10.02;;;3.10;;
62696;SDS011;48761;42.680;23.312;2023-03-31T16:33:57;6.05;;;2.70;;
62696;SDS011;48761;42.680;23.312;2023-03-31T16:36:23;8.00;;;2.60;;
62696;SDS011;48761;42.680;23.312;2023-03-31T16:38:52;6.93;;;2.63;;
62696;SDS011;48761;42.680;23.312;2023-03-31T16:41:19;7.93;;;2.63;;
62696;SDS011;48761;42.680;23.312;2023-03-31T16:43:46;8.45;;;3.20;;
62696;SDS011;48761;42.680;23.312;2023-03-31T16:46:12;8.90;;;3.50;;
62696;SDS011;48761;42.680;23.312;2023-03-31T16:48:38;6.63;;;2.65;;
62696;SDS011;48761;42.680;23.312;2023-03-31T16:51:04;8.73;;;2.88;;
62696;SDS011;48761;42.680;23.312;2023-03-31T16:53:31;8.85;;;4.10;;
62696;SDS011;48761;42.680;23.312;2023-03-31T16:55:58;11.85;;;5.10;;
62696;SDS011;48761;42.680;23.312;2023-03-31T16:58:25;13.65;;;5.40;;
62696;SDS011;48761;42.680;23.312;2023-03-31T17:00:52;16.08;;;6.00;;
62696;SDS011;48761;42.680;23.312;2023-03-31T17:03:18;14.68;;;6.38;;
62696;SDS011;48761;42.680;23.312;2023-03-31T17:05:45;14.50;;;6.85;;
62696;SDS011;48761;42.680;23.312;2023-03-31T17:08:13;15.38;;;6.72;;
62696;SDS011;48761;42.680;23.312;2023-03-31T17:10:40;18.40;;;7.88;;
62696;SDS011;48761;42.680;23.312;2023-03-31T17:13:06;14.02;;;7.43;;
62696;SDS011;48761;42.680;23.312;2023-03-31T17:15:34;17.83;;;7.35;;
62696;SDS011;48761;42.680;23.312;2023-03-31T17:18:01;15.75;;;7.60;;
62696;SDS011;48761;42.680;23.312;2023-03-31T17:20:27;15.15;;;7.47;;
62696;SDS011;48761;42.680;23.312;2023-03-31T17:22:53;15.38;;;8.10;;
62696;SDS011;48761;42.680;23.312;2023-03-31T17:25:20;16.38;;;8.27;;
62696;SDS011;48761;42.680;23.312;2023-03-31T17:27:46;19.52;;;8.75;;
62696;SDS011;48761;42.680;23.312;2023-03-31T17:30:12;20.48;;;8.80;;
62696;SDS011;48761;42.680;23.312;2023-03-31T17:32:39;19.23;;;9.52;;
62696;SDS011;48761;42.680;23.312;2023-03-31T17:35:05;19.15;;;8.70;;
62696;SDS011;48761;42.680;23.312;2023-03-31T17:37:32;19.27;;;8.35;;
62696;SDS011;48761;42.680;23.312;2023-03-31T17:39:58;15.18;;;6.70;;
62696;SDS011;48761;42.680;23.312;2023-03-31T17:42:24;15.00;;;6.72;;
62696;SDS011;48761;42.680;23.312;2023-03-31T17:44:50;14.13;;;7.18;;
62696;SDS011;48761;42.680;23.312;2023-03-31T17:47:17;17.58;;;7.65;;
62696;SDS011;48761;42.680;23.312;2023-03-31T17:49:43;19.58;;;9.05;;
62696;SDS011;48761;42.680;23.312;2023-03-31T17:52:09;21.58;;;8.82;;
62696;SDS011;48761;42.680;23.312;2023-03-31T17:54:35;19.38;;;8.32;;
62696;SDS011;48761;42.680;23.312;2023-03-31T17:57:01;13.73;;;7.38;;
62696;SDS011;48761;42.680;23.312;2023-03-31T17:59:27;25.95;;;14.93;;
62696;SDS011;48761;42.680;23.312;2023-03-31T18:01:53;19.40;;;10.93;;
62696;SDS011;48761;42.680;23.312;2023-03-31T18:04:19;20.38;;;8.93;;
62696;SDS011;48761;42.680;23.312;2023-03-31T18:06:46;23.42;;;14.02;;
62696;SDS011;48761;42.680;23.312;2023-03-31T18:09:12;25.83;;;14.73;;
62696;SDS011;48761;42.680;23.312;2023-03-31T18:11:37;21.30;;;11.48;;
62696;SDS011;48761;42.680;23.312;2023-03-31T18:14:03;26.23;;;11.05;;
62696;SDS011;48761;42.680;23.312;2023-03-31T18:16:29;22.80;;;10.55;;
62696;SDS011;48761;42.680;23.312;2023-03-31T18:18:56;17.35;;;9.95;;
62696;SDS011;48761;42.680;23.312;2023-03-31T18:21:22;19.88;;;10.25;;
62696;SDS011;48761;42.680;23.312;2023-03-31T18:23:49;22.58;;;12.30;;
62696;SDS011;48761;42.680;23.312;2023-03-31T18:26:15;22.08;;;10.35;;